createdAt,value
2022-11-05T00:00:25.796Z,50.866798
2022-11-05T00:01:25.849Z,50.866882
2022-11-05T00:02:25.775Z,50.866779
2022-11-05T00:03:26.799Z,50.866795
2022-11-05T00:04:30.776Z,50.866676
2022-11-05T00:05:27.752Z,50.866718
2022-11-05T00:06:25.752Z,50.866817
2022-11-05T00:07:25.748Z,50.866703
2022-11-05T00:08:26.313Z,50.866787
2022-11-05T00:09:25.727Z,50.866756
2022-11-05T00:10:25.710Z,50.866810
2022-11-05T00:11:25.711Z,50.866859
2022-11-05T00:12:25.705Z,50.866875
2022-11-05T00:13:25.696Z,50.866749
2022-11-05T00:14:25.671Z,50.866776
2022-11-05T00:15:25.673Z,50.866772
2022-11-05T00:16:25.663Z,50.866749
2022-11-05T00:17:25.681Z,50.866707
2022-11-05T00:18:25.670Z,50.866688
2022-11-05T00:19:25.654Z,50.866779
2022-11-05T00:20:25.646Z,50.866871
2022-11-05T00:21:25.628Z,50.866810
2022-11-05T00:22:25.719Z,50.866734
2022-11-05T00:23:25.616Z,50.866772
2022-11-05T00:24:25.599Z,50.866817
2022-11-05T00:25:25.598Z,50.866833
2022-11-05T00:26:25.583Z,50.866856
2022-11-05T00:27:25.576Z,50.866848
2022-11-05T00:35:26.713Z,50.866646
2022-11-05T00:36:26.723Z,50.866837
2022-11-05T00:37:26.704Z,50.866932
2022-11-05T00:38:26.684Z,50.866871
2022-11-05T00:39:26.759Z,50.866798
2022-11-05T00:40:26.722Z,50.866821
2022-11-05T00:41:26.652Z,50.866833
2022-11-05T00:42:27.603Z,50.866745
2022-11-05T00:43:26.639Z,50.866756
2022-11-05T00:44:26.632Z,50.866707
2022-11-05T00:45:26.619Z,50.866726
2022-11-05T00:46:26.667Z,50.866714
2022-11-05T00:47:26.602Z,50.866756
2022-11-05T00:48:26.671Z,50.866745
2022-11-05T00:49:26.598Z,50.866787
2022-11-05T00:50:26.578Z,50.866749
2022-11-05T00:51:26.569Z,50.866753
2022-11-05T00:52:27.565Z,50.866776
2022-11-05T00:53:26.564Z,50.866734
2022-11-05T00:54:26.714Z,50.866718
2022-11-05T00:55:26.546Z,50.866760
2022-11-05T00:56:27.533Z,50.866760
2022-11-05T00:57:26.525Z,50.866707
2022-11-05T00:58:26.518Z,50.866722
2022-11-05T00:59:26.542Z,50.866726
2022-11-05T01:00:26.509Z,50.866718
2022-11-05T01:01:26.595Z,50.866711
2022-11-05T01:02:26.577Z,50.866711
2022-11-05T01:03:26.480Z,50.866703
2022-11-05T01:04:26.486Z,50.866768
2022-11-05T01:05:26.527Z,50.866749
2022-11-05T01:06:26.471Z,50.866680
2022-11-05T01:07:26.442Z,50.866695
2022-11-05T01:08:26.582Z,50.866718
2022-11-05T01:09:26.429Z,50.866840
2022-11-05T01:10:26.423Z,50.866844
2022-11-05T01:11:26.411Z,50.866722
2022-11-05T01:12:26.404Z,50.866741
2022-11-05T01:13:26.405Z,50.866734
2022-11-05T01:14:26.425Z,50.866726
2022-11-05T01:15:26.380Z,50.866787
2022-11-05T01:16:26.384Z,50.866745
2022-11-05T01:17:26.362Z,50.866726
2022-11-05T01:18:26.362Z,50.866730
2022-11-05T01:19:26.346Z,50.866749
2022-11-05T01:20:26.344Z,50.866756
2022-11-05T01:21:26.339Z,50.866764
2022-11-05T01:22:26.408Z,50.866787
2022-11-05T01:23:26.326Z,50.866783
2022-11-05T01:24:26.329Z,50.866810
2022-11-05T01:25:26.337Z,50.866753
2022-11-05T01:26:26.306Z,50.866768
2022-11-05T01:27:26.289Z,50.866749
2022-11-05T01:28:26.350Z,50.866798
2022-11-05T01:29:26.273Z,50.866768
2022-11-05T01:30:26.262Z,50.866768
2022-11-05T01:31:26.261Z,50.866760
2022-11-05T01:32:26.244Z,50.866798
2022-11-05T01:33:26.237Z,50.866779
2022-11-05T01:34:26.240Z,50.866787
2022-11-05T01:35:26.218Z,50.866764
2022-11-05T01:36:26.215Z,50.866711
2022-11-05T01:37:26.203Z,50.866734
2022-11-05T01:38:26.196Z,50.866707
2022-11-05T01:39:26.185Z,50.866718
2022-11-05T01:40:26.183Z,50.866688
2022-11-05T01:41:26.179Z,50.866665
2022-11-05T01:42:26.169Z,50.866642
2022-11-05T01:43:26.150Z,50.866650
2022-11-05T01:44:26.145Z,50.866657
2022-11-05T01:45:26.142Z,50.866657
2022-11-05T01:46:26.141Z,50.866665
2022-11-05T01:47:26.120Z,50.866695
2022-11-05T01:48:26.114Z,50.866707
2022-11-05T01:49:26.108Z,50.866730
2022-11-05T01:50:26.099Z,50.866730
2022-11-05T01:51:26.084Z,50.866737
2022-11-05T01:52:26.079Z,50.866726
2022-11-05T01:53:26.070Z,50.866711
2022-11-05T01:54:26.064Z,50.866711
2022-11-05T01:55:26.077Z,50.866695
2022-11-05T01:56:26.050Z,50.866699
2022-11-05T01:57:26.038Z,50.866730
2022-11-05T01:58:26.048Z,50.866695
2022-11-05T01:59:26.020Z,50.866684
2022-11-05T02:00:26.034Z,50.866695
2022-11-05T02:01:26.069Z,50.866684
2022-11-05T02:02:26.088Z,50.866680
2022-11-05T02:03:25.986Z,50.866680
2022-11-05T02:04:25.994Z,50.866665
2022-11-05T02:05:25.975Z,50.866657
2022-11-05T02:06:25.981Z,50.866642
2022-11-05T02:07:25.956Z,50.866653
2022-11-05T02:08:25.952Z,50.866650
2022-11-05T02:09:25.953Z,50.866699
2022-11-05T02:10:25.932Z,50.866673
2022-11-05T02:11:25.931Z,50.866642
2022-11-05T02:12:25.920Z,50.866634
2022-11-05T02:13:25.909Z,50.866631
2022-11-05T02:14:25.915Z,50.866634
2022-11-05T02:15:25.898Z,50.866661
2022-11-05T02:16:25.900Z,50.866665
2022-11-05T02:17:25.890Z,50.866676
2022-11-05T02:18:25.870Z,50.866619
2022-11-05T02:19:25.868Z,50.866619
2022-11-05T02:20:25.855Z,50.866673
2022-11-05T02:21:25.852Z,50.866676
2022-11-05T02:22:25.851Z,50.866646
2022-11-05T02:23:25.824Z,50.866619
2022-11-05T02:24:25.822Z,50.866638
2022-11-05T02:25:25.812Z,50.866650
2022-11-05T02:26:25.814Z,50.866756
2022-11-05T02:27:25.831Z,50.866707
2022-11-05T02:28:25.787Z,50.866676
2022-11-05T02:29:25.776Z,50.866699
2022-11-05T02:30:25.787Z,50.866699
2022-11-05T02:31:25.764Z,50.866676
2022-11-05T02:32:26.761Z,50.866665
2022-11-05T02:33:25.755Z,50.866707
2022-11-05T02:34:25.738Z,50.866673
2022-11-05T02:35:25.731Z,50.866650
2022-11-05T02:36:25.734Z,50.866695
2022-11-05T02:37:25.716Z,50.866669
2022-11-05T02:38:25.723Z,50.866642
2022-11-05T02:39:25.704Z,50.866695
2022-11-05T02:40:25.694Z,50.866673
2022-11-05T02:41:25.687Z,50.866631
2022-11-05T02:42:25.679Z,50.866615
2022-11-05T02:43:25.666Z,50.866623
2022-11-05T02:44:25.659Z,50.866604
2022-11-05T02:45:26.618Z,50.866673
2022-11-05T02:46:25.655Z,50.866600
2022-11-05T02:47:25.643Z,50.866604
2022-11-05T02:48:25.638Z,50.866653
2022-11-05T02:49:25.618Z,50.866619
2022-11-05T02:50:25.614Z,50.866680
2022-11-05T02:51:25.611Z,50.866764
2022-11-05T02:52:25.606Z,50.866753
2022-11-05T02:53:25.591Z,50.866776
2022-11-05T02:54:25.588Z,50.866787
2022-11-05T02:55:25.568Z,50.866730
2022-11-05T02:56:25.571Z,50.866661
2022-11-05T02:57:25.563Z,50.866570
2022-11-05T02:58:25.553Z,50.866543
2022-11-05T02:59:25.538Z,50.866558
2022-11-05T03:00:26.123Z,50.866642
2022-11-05T03:01:25.665Z,50.866707
2022-11-05T03:02:25.783Z,50.866596
2022-11-05T03:03:25.506Z,50.866665
2022-11-05T03:04:25.507Z,50.866863
2022-11-05T03:05:25.501Z,50.866917
2022-11-05T03:06:25.489Z,50.867012
2022-11-05T03:07:25.493Z,50.867058
2022-11-05T03:08:25.481Z,50.867062
2022-11-05T03:09:25.464Z,50.867050
2022-11-05T03:10:25.478Z,50.867012
2022-11-05T03:11:25.449Z,50.867088
2022-11-05T03:12:25.431Z,50.867058
2022-11-05T03:13:25.435Z,50.867081
2022-11-05T03:14:25.432Z,50.867004
2022-11-05T03:15:25.425Z,50.867031
2022-11-05T03:16:25.410Z,50.866802
2022-11-05T03:17:25.396Z,50.866795
2022-11-05T03:18:25.478Z,50.866806
2022-11-05T03:19:25.378Z,50.866833
2022-11-05T03:20:25.372Z,50.866817
2022-11-05T03:21:25.386Z,50.866798
2022-11-05T03:22:25.357Z,50.866806
2022-11-05T03:23:25.357Z,50.866776
2022-11-05T03:24:26.053Z,50.866791
2022-11-05T03:25:25.333Z,50.866802
2022-11-05T03:26:25.322Z,50.866829
2022-11-05T03:27:25.317Z,50.866760
2022-11-05T03:28:25.324Z,50.866810
2022-11-05T03:29:25.315Z,50.866844
2022-11-05T03:30:25.301Z,50.866844
2022-11-05T03:31:25.295Z,50.866783
2022-11-05T03:32:25.296Z,50.866787
2022-11-05T03:33:25.271Z,50.866802
2022-11-05T03:34:25.269Z,50.866798
2022-11-05T03:35:25.259Z,50.866814
2022-11-05T03:36:25.248Z,50.866802
2022-11-05T03:37:26.132Z,50.866802
2022-11-05T03:38:25.232Z,50.866795
2022-11-05T03:39:25.239Z,50.866768
2022-11-05T03:40:25.217Z,50.866764
2022-11-05T03:41:25.206Z,50.866798
2022-11-05T03:42:25.207Z,50.866798
2022-11-05T03:43:26.127Z,50.866772
2022-11-05T03:44:25.184Z,50.866779
2022-11-05T03:45:25.179Z,50.866772
2022-11-05T03:46:25.163Z,50.866745
2022-11-05T03:47:25.167Z,50.866776
2022-11-05T03:48:25.204Z,50.866764
2022-11-05T03:49:25.145Z,50.866764
2022-11-05T03:50:25.139Z,50.866776
2022-11-05T03:51:25.121Z,50.866772
2022-11-05T03:52:25.114Z,50.866768
2022-11-05T03:53:25.106Z,50.866806
2022-11-05T03:54:25.104Z,50.866783
2022-11-05T03:55:25.111Z,50.866779
2022-11-05T03:56:25.101Z,50.866776
2022-11-05T03:57:25.075Z,50.866753
2022-11-05T03:58:25.068Z,50.866772
2022-11-05T03:59:25.064Z,50.866783
2022-11-05T04:00:25.049Z,50.866779
2022-11-05T04:01:26.173Z,50.866768
2022-11-05T04:02:25.182Z,50.866749
2022-11-05T04:03:25.029Z,50.866783
2022-11-05T04:04:25.030Z,50.866783
2022-11-05T04:05:25.018Z,50.866783
2022-11-05T04:06:25.005Z,50.866787
2022-11-05T04:07:24.994Z,50.866787
2022-11-05T04:08:24.989Z,50.866791
2022-11-05T04:09:24.978Z,50.866741
2022-11-05T04:10:24.974Z,50.866749
2022-11-05T04:11:24.967Z,50.866764
2022-11-05T04:12:25.651Z,50.866764
2022-11-05T04:13:24.947Z,50.866776
2022-11-05T04:14:24.934Z,50.866783
2022-11-05T04:15:24.925Z,50.866753
2022-11-05T04:16:24.932Z,50.866749
2022-11-05T04:17:24.912Z,50.866791
2022-11-05T04:18:24.903Z,50.866798
2022-11-05T04:19:26.230Z,50.866821
2022-11-05T04:20:25.890Z,50.866814
2022-11-05T04:21:24.888Z,50.866837
2022-11-05T04:22:24.884Z,50.866890
2022-11-05T04:23:24.868Z,50.866848
2022-11-05T04:24:24.855Z,50.866852
2022-11-05T04:25:24.861Z,50.866833
2022-11-05T04:26:24.840Z,50.866840
2022-11-05T04:27:24.838Z,50.866791
2022-11-05T04:28:24.827Z,50.866810
2022-11-05T04:29:24.813Z,50.866772
2022-11-05T04:30:24.811Z,50.866840
2022-11-05T04:31:24.817Z,50.866833
2022-11-05T04:32:24.792Z,50.866760
2022-11-05T04:33:25.563Z,50.866749
2022-11-05T04:34:24.781Z,50.866734
2022-11-05T04:35:24.765Z,50.866772
2022-11-05T04:36:24.765Z,50.866802
2022-11-05T04:37:24.755Z,50.866741
2022-11-05T04:38:24.821Z,50.866749
2022-11-05T04:39:25.565Z,50.866699
2022-11-05T04:40:24.729Z,50.866711
2022-11-05T04:41:24.719Z,50.866692
2022-11-05T04:42:24.720Z,50.866722
2022-11-05T04:43:24.712Z,50.866756
2022-11-05T04:44:24.691Z,50.866714
2022-11-05T04:45:24.683Z,50.866768
2022-11-05T04:46:24.682Z,50.866741
2022-11-05T04:47:24.678Z,50.866783
2022-11-05T04:48:24.661Z,50.866821
2022-11-05T04:49:25.576Z,50.866871
2022-11-05T04:50:24.645Z,50.866875
2022-11-05T04:51:25.148Z,50.866795
2022-11-05T04:52:24.637Z,50.866867
2022-11-05T04:53:25.146Z,50.866787
2022-11-05T04:54:24.616Z,50.866692
2022-11-05T04:55:24.601Z,50.866795
2022-11-05T04:56:24.598Z,50.866566
2022-11-05T04:57:24.591Z,50.866333
2022-11-05T04:58:24.586Z,50.866318
2022-11-05T04:59:24.586Z,50.866428
2022-11-05T05:00:24.584Z,50.866604
2022-11-05T05:01:24.609Z,50.866547
2022-11-05T05:02:24.550Z,50.866550
2022-11-05T05:03:24.535Z,50.866520
2022-11-05T05:04:24.540Z,50.866501
2022-11-05T05:05:24.522Z,50.866703
2022-11-05T05:06:24.506Z,50.866760
2022-11-05T05:07:24.503Z,50.866730
2022-11-05T05:08:24.491Z,50.866684
2022-11-05T05:09:25.081Z,50.866650
2022-11-05T05:10:24.567Z,50.866772
2022-11-05T05:11:24.472Z,50.866718
2022-11-05T05:12:24.463Z,50.866879
2022-11-05T05:13:24.455Z,50.866924
2022-11-05T05:14:24.443Z,50.866917
2022-11-05T05:15:24.450Z,50.866867
2022-11-05T05:16:24.435Z,50.866882
2022-11-05T05:17:24.418Z,50.866833
2022-11-05T05:18:24.419Z,50.866894
2022-11-05T05:19:24.427Z,50.866825
2022-11-05T05:20:24.408Z,50.866856
2022-11-05T05:21:24.389Z,50.866863
2022-11-05T05:22:24.393Z,50.866920
2022-11-05T05:23:24.389Z,50.866924
2022-11-05T05:24:24.362Z,50.866837
2022-11-05T05:25:24.371Z,50.866814
2022-11-05T05:26:25.161Z,50.866894
2022-11-05T05:27:24.347Z,50.866936
2022-11-05T05:28:24.338Z,50.866894
2022-11-05T05:29:24.325Z,50.866814
2022-11-05T05:30:24.328Z,50.866867
2022-11-05T05:31:24.325Z,50.866909
2022-11-05T05:32:24.306Z,50.866951
2022-11-05T05:33:24.295Z,50.866955
2022-11-05T05:34:24.294Z,50.867054
2022-11-05T05:35:24.281Z,50.867065
2022-11-05T05:36:24.282Z,50.867012
2022-11-05T05:37:24.262Z,50.866959
2022-11-05T05:38:24.258Z,50.866997
2022-11-05T05:39:24.248Z,50.866871
2022-11-05T05:40:24.240Z,50.866821
2022-11-05T05:41:24.240Z,50.866840
2022-11-05T05:42:24.237Z,50.866947
2022-11-05T05:43:25.085Z,50.866955
2022-11-05T05:44:24.208Z,50.866955
2022-11-05T05:45:24.200Z,50.866989
2022-11-05T05:46:24.195Z,50.866894
2022-11-05T05:47:24.178Z,50.866924
2022-11-05T05:48:24.175Z,50.866894
2022-11-05T05:49:24.163Z,50.866852
2022-11-05T05:50:25.091Z,50.866833
2022-11-05T05:51:25.084Z,50.866882
2022-11-05T05:52:24.142Z,50.866833
2022-11-05T05:53:24.131Z,50.866879
2022-11-05T05:54:27.727Z,50.866882
2022-11-05T05:55:26.136Z,50.866859
2022-11-05T05:56:24.115Z,50.866898
2022-11-05T05:57:24.100Z,50.866806
2022-11-05T05:58:24.091Z,50.866764
2022-11-05T05:59:24.082Z,50.866882
2022-11-05T06:00:24.094Z,50.866798
2022-11-05T06:01:24.140Z,50.866844
2022-11-05T06:02:24.240Z,50.866760
2022-11-05T06:03:24.052Z,50.866692
2022-11-05T06:04:24.047Z,50.866821
2022-11-05T06:05:24.042Z,50.866772
2022-11-05T06:06:24.054Z,50.866676
2022-11-05T06:07:24.032Z,50.866848
2022-11-05T06:08:24.012Z,50.866718
2022-11-05T06:09:24.000Z,50.866745
2022-11-05T06:10:24.099Z,50.866871
2022-11-05T06:11:24.004Z,50.866920
2022-11-05T06:12:23.987Z,50.866817
2022-11-05T06:13:23.967Z,50.866734
2022-11-05T06:14:24.054Z,50.866776
2022-11-05T06:15:23.952Z,50.866768
2022-11-05T06:16:24.664Z,50.866783
2022-11-05T06:17:23.935Z,50.866783
2022-11-05T06:18:23.924Z,50.866795
2022-11-05T06:19:23.925Z,50.866833
2022-11-05T06:20:23.912Z,50.866772
2022-11-05T06:21:23.902Z,50.866772
2022-11-05T06:22:23.921Z,50.866688
2022-11-05T06:23:23.887Z,50.866745
2022-11-05T06:24:23.890Z,50.866764
2022-11-05T06:25:23.866Z,50.866852
2022-11-05T06:26:23.864Z,50.866718
2022-11-05T06:27:23.862Z,50.866726
2022-11-05T06:28:23.862Z,50.866920
2022-11-05T06:29:23.847Z,50.866909
2022-11-05T06:30:23.832Z,50.866817
2022-11-05T06:31:23.829Z,50.866905
2022-11-05T06:32:23.815Z,50.866795
2022-11-05T06:33:23.810Z,50.866726
2022-11-05T06:34:23.797Z,50.866802
2022-11-05T06:35:23.792Z,50.866817
2022-11-05T06:36:23.783Z,50.866867
2022-11-05T06:37:23.771Z,50.866825
2022-11-05T06:38:23.764Z,50.866722
2022-11-05T06:39:23.766Z,50.866741
2022-11-05T06:40:23.745Z,50.866776
2022-11-05T06:41:23.748Z,50.866749
2022-11-05T06:42:24.666Z,50.866776
2022-11-05T06:43:23.733Z,50.866829
2022-11-05T06:44:23.713Z,50.866722
2022-11-05T06:45:23.706Z,50.866531
2022-11-05T06:46:23.715Z,50.866692
2022-11-05T06:47:23.689Z,50.866688
2022-11-05T06:48:23.681Z,50.866734
2022-11-05T06:49:23.675Z,50.866714
2022-11-05T06:50:23.667Z,50.866795
2022-11-05T06:51:23.671Z,50.866802
2022-11-05T06:52:23.647Z,50.866779
2022-11-05T06:53:23.648Z,50.866997
2022-11-05T06:54:23.640Z,50.866825
2022-11-05T06:55:23.624Z,50.866871
2022-11-05T06:56:23.618Z,50.867130
2022-11-05T06:57:23.614Z,50.867065
2022-11-05T06:58:23.597Z,50.867241
2022-11-05T06:59:23.609Z,50.867165
2022-11-05T07:00:23.583Z,50.867176
2022-11-05T07:01:23.671Z,50.867142
2022-11-05T07:02:23.623Z,50.866955
2022-11-05T07:03:23.564Z,50.867233
2022-11-05T07:04:23.551Z,50.867226
2022-11-05T07:05:23.549Z,50.867222
2022-11-05T07:06:23.543Z,50.867039
2022-11-05T07:07:23.527Z,50.866932
2022-11-05T07:08:23.521Z,50.867229
2022-11-05T07:09:23.510Z,50.867615
2022-11-05T07:10:23.505Z,50.867149
2022-11-05T07:11:23.503Z,50.866745
2022-11-05T07:12:23.483Z,50.866749
2022-11-05T07:13:23.478Z,50.866528
2022-11-05T07:14:23.470Z,50.866600
2022-11-05T07:15:23.465Z,50.866650
2022-11-05T07:16:23.465Z,50.866760
2022-11-05T07:17:23.451Z,50.866653
2022-11-05T07:18:23.446Z,50.866623
2022-11-05T07:19:23.431Z,50.866684
2022-11-05T07:20:23.421Z,50.866680
2022-11-05T07:21:23.436Z,50.866665
2022-11-05T07:22:23.404Z,50.866680
2022-11-05T07:23:23.398Z,50.866703
2022-11-05T07:24:23.390Z,50.866741
2022-11-05T07:25:23.385Z,50.866741
2022-11-05T07:26:23.381Z,50.866650
2022-11-05T07:27:23.367Z,50.866699
2022-11-05T07:28:23.353Z,50.866756
2022-11-05T07:29:23.345Z,50.866737
2022-11-05T07:30:23.344Z,50.866764
2022-11-05T07:31:23.346Z,50.866776
2022-11-05T07:32:23.319Z,50.866703
2022-11-05T07:33:23.317Z,50.866760
2022-11-05T07:34:23.314Z,50.866787
2022-11-05T07:35:23.296Z,50.866814
2022-11-05T07:36:23.290Z,50.866768
2022-11-05T07:37:23.281Z,50.866837
2022-11-05T07:38:23.284Z,50.866722
2022-11-05T07:39:23.266Z,50.866760
2022-11-05T07:40:23.262Z,50.866722
2022-11-05T07:41:23.259Z,50.866749
2022-11-05T07:42:23.244Z,50.866726
2022-11-05T07:43:23.238Z,50.866734
2022-11-05T07:44:23.224Z,50.866760
2022-11-05T07:45:23.215Z,50.866814
2022-11-05T07:46:23.210Z,50.866863
2022-11-05T07:47:23.196Z,50.866917
2022-11-05T07:48:24.183Z,50.866810
2022-11-05T07:49:23.683Z,50.866871
2022-11-05T07:50:23.251Z,50.866875
2022-11-05T07:51:23.170Z,50.866905
2022-11-05T07:52:23.155Z,50.866898
2022-11-05T07:53:23.159Z,50.867001
2022-11-05T07:54:23.141Z,50.866966
2022-11-05T07:55:23.141Z,50.867031
2022-11-05T07:56:23.127Z,50.867077
2022-11-05T07:57:23.115Z,50.867062
2022-11-05T07:58:23.127Z,50.866985
2022-11-05T07:59:23.111Z,50.867138
2022-11-05T08:00:23.092Z,50.866837
2022-11-05T08:01:23.196Z,50.866673
2022-11-05T08:02:23.324Z,50.866661
2022-11-05T08:03:23.292Z,50.866611
2022-11-05T08:04:23.077Z,50.866642
2022-11-05T08:05:23.053Z,50.866634
2022-11-05T08:06:23.048Z,50.866615
2022-11-05T08:07:23.038Z,50.866619
2022-11-05T08:08:25.606Z,50.866665
2022-11-05T08:09:23.021Z,50.866703
2022-11-05T08:10:23.007Z,50.866707
2022-11-05T08:11:22.996Z,50.866646
2022-11-05T08:12:23.695Z,50.866631
2022-11-05T08:13:22.999Z,50.866646
2022-11-05T08:14:22.980Z,50.866665
2022-11-05T08:15:22.968Z,50.866695
2022-11-05T08:16:22.966Z,50.866634
2022-11-05T08:17:22.948Z,50.866623
2022-11-05T08:18:22.942Z,50.866570
2022-11-05T08:19:22.930Z,50.866638
2022-11-05T08:20:22.927Z,50.866589
2022-11-05T08:21:22.920Z,50.866566
2022-11-05T08:22:22.924Z,50.866554
2022-11-05T08:23:22.899Z,50.866604
2022-11-05T08:24:22.893Z,50.866516
2022-11-05T08:25:22.884Z,50.866493
2022-11-05T08:26:22.880Z,50.866604
2022-11-05T08:27:22.866Z,50.866585
2022-11-05T08:28:22.862Z,50.866623
2022-11-05T08:29:22.854Z,50.866608
2022-11-05T08:30:22.849Z,50.866623
2022-11-05T08:31:22.835Z,50.866611
2022-11-05T08:32:22.827Z,50.866604
2022-11-05T08:33:22.814Z,50.866596
2022-11-05T08:34:22.815Z,50.866604
2022-11-05T08:35:22.802Z,50.866562
2022-11-05T08:36:22.795Z,50.866573
2022-11-05T08:37:22.781Z,50.866638
2022-11-05T08:38:22.789Z,50.866596
2022-11-05T08:39:22.767Z,50.866650
2022-11-05T08:40:22.759Z,50.866566
2022-11-05T08:41:22.757Z,50.866608
2022-11-05T08:42:22.751Z,50.866646
2022-11-05T08:43:22.733Z,50.866581
2022-11-05T08:44:23.619Z,50.866623
2022-11-05T08:45:22.732Z,50.866642
2022-11-05T08:46:22.703Z,50.866611
2022-11-05T08:47:23.701Z,50.866611
2022-11-05T08:48:22.698Z,50.866615
2022-11-05T08:49:22.701Z,50.866627
2022-11-05T08:50:22.692Z,50.866562
2022-11-05T08:51:22.669Z,50.866600
2022-11-05T08:52:22.660Z,50.866627
2022-11-05T08:53:22.650Z,50.866692
2022-11-05T08:54:22.656Z,50.866688
2022-11-05T08:55:22.645Z,50.866653
2022-11-05T08:56:22.652Z,50.866627
2022-11-05T08:57:22.639Z,50.866661
2022-11-05T08:58:23.119Z,50.866673
2022-11-05T08:59:23.637Z,50.866642
2022-11-05T09:00:22.604Z,50.866615
2022-11-05T09:01:22.737Z,50.866634
2022-11-05T09:02:22.757Z,50.866653
2022-11-05T09:03:22.575Z,50.866684
2022-11-05T09:04:22.573Z,50.866646
2022-11-05T09:05:22.560Z,50.866673
2022-11-05T09:06:22.560Z,50.866665
2022-11-05T09:07:22.538Z,50.866631
2022-11-05T09:08:22.540Z,50.866638
2022-11-05T09:09:22.537Z,50.866577
2022-11-05T09:10:22.520Z,50.866657
2022-11-05T09:11:33.050Z,50.866631
2022-11-05T09:12:23.502Z,50.866642
2022-11-05T09:13:23.050Z,50.866665
2022-11-05T09:14:22.498Z,50.866692
2022-11-05T09:15:22.478Z,50.866707
2022-11-05T09:16:22.495Z,50.866749
2022-11-05T09:17:22.475Z,50.866722
2022-11-05T09:18:22.462Z,50.866692
2022-11-05T09:19:22.461Z,50.866669
2022-11-05T09:20:22.455Z,50.866726
2022-11-05T09:21:22.445Z,50.866703
2022-11-05T09:22:23.209Z,50.866737
2022-11-05T09:23:22.427Z,50.866772
2022-11-05T09:24:22.414Z,50.866802
2022-11-05T09:25:22.427Z,50.866749
2022-11-05T09:26:22.422Z,50.866798
2022-11-05T09:27:22.396Z,50.866730
2022-11-05T09:28:22.384Z,50.866791
2022-11-05T09:29:22.376Z,50.866711
2022-11-05T09:30:22.377Z,50.866737
2022-11-05T09:31:22.381Z,50.866688
2022-11-05T09:32:22.353Z,50.866669
2022-11-05T09:33:22.358Z,50.866653
2022-11-05T09:34:22.347Z,50.866661
2022-11-05T09:35:22.331Z,50.866673
2022-11-05T09:36:22.324Z,50.866608
2022-11-05T09:37:22.340Z,50.866676
2022-11-05T09:38:22.301Z,50.866650
2022-11-05T09:39:22.295Z,50.866692
2022-11-05T09:40:23.154Z,50.866688
2022-11-05T09:41:22.281Z,50.866676
2022-11-05T09:42:22.275Z,50.866718
2022-11-05T09:43:26.063Z,50.866692
2022-11-05T09:44:23.267Z,50.866676
2022-11-05T09:45:22.261Z,50.866638
2022-11-05T09:46:22.268Z,50.866676
2022-11-05T09:47:22.250Z,50.866653
2022-11-05T09:48:22.217Z,50.866642
2022-11-05T09:49:22.240Z,50.866657
2022-11-05T09:50:22.222Z,50.866673
2022-11-05T09:51:24.126Z,50.866673
2022-11-05T09:52:23.201Z,50.866665
2022-11-05T09:53:22.184Z,50.866661
2022-11-05T09:54:22.182Z,50.866661
2022-11-05T09:55:22.197Z,50.866650
2022-11-05T09:56:22.154Z,50.866646
2022-11-05T09:57:22.142Z,50.866638
2022-11-05T09:58:27.480Z,50.866703
2022-11-05T09:59:24.139Z,50.866646
2022-11-05T10:00:22.175Z,50.866627
2022-11-05T10:01:22.303Z,50.866661
2022-11-05T10:02:22.190Z,50.866680
2022-11-05T10:03:23.106Z,50.866703
2022-11-05T10:04:22.101Z,50.866726
2022-11-05T10:05:22.116Z,50.866650
2022-11-05T10:06:22.075Z,50.866699
2022-11-05T10:07:22.080Z,50.866688
2022-11-05T10:08:22.595Z,50.866676
2022-11-05T10:09:22.058Z,50.866703
2022-11-05T10:10:22.050Z,50.866714
2022-11-05T10:11:24.663Z,50.866734
2022-11-05T10:12:22.039Z,50.866734
2022-11-05T10:13:22.028Z,50.866741
2022-11-05T10:14:22.061Z,50.866753
2022-11-05T10:15:22.005Z,50.866764
2022-11-05T10:16:22.008Z,50.866806
2022-11-05T10:17:22.017Z,50.866764
2022-11-05T10:18:21.987Z,50.866791
2022-11-05T10:19:21.984Z,50.866802
2022-11-05T10:20:21.968Z,50.866741
2022-11-05T10:21:44.180Z,50.866776
2022-11-05T10:22:23.959Z,50.866768
2022-11-05T10:23:21.962Z,50.866756
2022-11-05T10:24:21.934Z,50.866741
2022-11-05T10:25:21.935Z,50.866764
2022-11-05T10:26:21.920Z,50.866795
2022-11-05T10:27:21.907Z,50.866730
2022-11-05T10:28:21.901Z,50.866783
2022-11-05T10:29:21.896Z,50.866779
2022-11-05T10:30:21.893Z,50.866783
2022-11-05T10:31:21.900Z,50.866745
2022-11-05T10:32:21.872Z,50.866772
2022-11-05T10:33:21.865Z,50.866749
2022-11-05T10:34:21.861Z,50.866829
2022-11-05T10:35:21.850Z,50.866852
2022-11-05T10:36:22.723Z,50.866829
2022-11-05T10:37:21.833Z,50.866791
2022-11-05T10:38:21.818Z,50.866844
2022-11-05T10:39:21.820Z,50.866856
2022-11-05T10:40:21.808Z,50.866879
2022-11-05T10:41:21.795Z,50.866909
2022-11-05T10:42:21.799Z,50.866882
2022-11-05T10:43:21.786Z,50.866920
2022-11-05T10:44:21.775Z,50.866825
2022-11-05T10:45:21.791Z,50.866959
2022-11-05T10:46:21.852Z,50.866959
2022-11-05T10:47:21.753Z,50.867039
2022-11-05T10:48:22.655Z,50.867065
2022-11-05T10:49:21.725Z,50.867092
2022-11-05T10:50:22.735Z,50.866940
2022-11-05T10:51:21.718Z,50.866886
2022-11-05T10:52:21.714Z,50.866810
2022-11-05T10:53:21.703Z,50.867176
2022-11-05T10:54:22.261Z,50.867043
2022-11-05T10:55:21.687Z,50.867111
2022-11-05T10:56:21.680Z,50.867035
2022-11-05T10:57:21.670Z,50.866982
2022-11-05T10:58:21.669Z,50.867058
2022-11-05T10:59:21.662Z,50.867325
2022-11-05T11:00:21.656Z,50.867393
2022-11-05T11:01:21.783Z,50.867298
2022-11-05T11:02:22.311Z,50.867229
2022-11-05T11:03:21.635Z,50.867290
2022-11-05T11:04:21.620Z,50.867290
2022-11-05T11:05:22.234Z,50.867260
2022-11-05T11:06:21.602Z,50.867153
2022-11-05T11:07:21.593Z,50.866909
2022-11-05T11:08:21.593Z,50.866882
2022-11-05T11:09:21.576Z,50.866798
2022-11-05T11:10:21.585Z,50.866737
2022-11-05T11:11:21.572Z,50.866776
2022-11-05T11:12:21.567Z,50.866734
2022-11-05T11:13:21.550Z,50.866718
2022-11-05T11:14:21.535Z,50.866772
2022-11-05T11:15:21.527Z,50.866783
2022-11-05T11:16:21.527Z,50.866779
2022-11-05T11:17:21.561Z,50.866909
2022-11-05T11:18:21.511Z,50.866859
2022-11-05T11:19:21.503Z,50.866753
2022-11-05T11:20:21.489Z,50.866714
2022-11-05T11:21:21.475Z,50.866703
2022-11-05T11:22:21.475Z,50.866718
2022-11-05T11:23:21.472Z,50.866776
2022-11-05T11:24:21.457Z,50.866764
2022-11-05T11:25:21.450Z,50.866688
2022-11-05T11:26:21.444Z,50.866718
2022-11-05T11:27:21.438Z,50.866726
2022-11-05T11:28:21.424Z,50.866806
2022-11-05T11:29:21.417Z,50.866714
2022-11-05T11:30:21.408Z,50.866680
2022-11-05T11:31:21.401Z,50.866745